createdAt,value
2022-08-31T00:00:14.352Z,18.95
2022-08-31T00:02:59.802Z,18.86
2022-08-31T00:05:26.761Z,18.87
2022-08-31T00:07:54.449Z,18.83
2022-08-31T00:10:32.441Z,18.81
2022-08-31T00:13:04.556Z,18.86
2022-08-31T00:15:35.379Z,18.83
2022-08-31T00:18:02.380Z,18.76
2022-08-31T00:20:33.572Z,18.53
2022-08-31T00:23:07.433Z,18.56
2022-08-31T00:25:36.763Z,18.64
2022-08-31T00:28:05.171Z,18.73
2022-08-31T00:30:32.962Z,18.67
2022-08-31T00:33:00.183Z,18.64
2022-08-31T00:35:38.113Z,18.67
2022-08-31T00:38:06.045Z,18.65
2022-08-31T00:40:44.302Z,18.66
2022-08-31T00:43:21.329Z,18.56
2022-08-31T00:45:48.274Z,18.58
2022-08-31T00:48:15.037Z,18.53
2022-08-31T00:50:41.928Z,18.59
2022-08-31T00:53:08.690Z,18.62
2022-08-31T00:55:37.225Z,18.71
2022-08-31T00:58:10.204Z,18.65
2022-08-31T01:00:37.522Z,18.66
2022-08-31T01:03:08.111Z,18.42
2022-08-31T01:05:36.136Z,18.48
2022-08-31T01:08:04.161Z,18.43
2022-08-31T01:10:36.302Z,18.57
2022-08-31T01:13:05.247Z,18.58
2022-08-31T01:15:33.425Z,18.50
2022-08-31T01:18:03.731Z,18.59
2022-08-31T01:20:49.192Z,18.62
2022-08-31T01:23:19.170Z,18.42
2022-08-31T01:25:48.780Z,18.43
2022-08-31T01:28:16.149Z,18.52
2022-08-31T01:30:44.075Z,18.41
2022-08-31T01:33:13.314Z,18.44
2022-08-31T01:35:45.001Z,18.52
2022-08-31T01:38:13.342Z,18.60
2022-08-31T01:40:50.929Z,18.63
2022-08-31T01:43:17.960Z,18.64
2022-08-31T01:45:44.917Z,18.66
2022-08-31T01:48:11.935Z,18.69
2022-08-31T01:50:39.114Z,18.69
2022-08-31T01:53:06.005Z,18.86
2022-08-31T01:55:32.797Z,18.78
2022-08-31T01:58:00.814Z,18.85
2022-08-31T02:00:29.008Z,18.90
2022-08-31T02:03:00.197Z,18.94
2022-08-31T02:05:28.356Z,18.78
2022-08-31T02:07:57.114Z,18.63
2022-08-31T02:10:24.989Z,18.74
2022-08-31T02:12:52.004Z,18.83
2022-08-31T02:15:18.953Z,18.81
2022-08-31T02:17:45.846Z,18.83
2022-08-31T02:20:15.793Z,18.85
2022-08-31T02:22:43.629Z,18.64
2022-08-31T02:25:11.318Z,18.48
2022-08-31T02:27:38.666Z,18.48
2022-08-31T02:30:11.954Z,18.52
2022-08-31T02:32:38.756Z,18.65
2022-08-31T02:35:06.777Z,18.47
2022-08-31T02:37:33.565Z,18.48
2022-08-31T02:40:02.963Z,18.49
2022-08-31T02:42:52.164Z,18.26
2022-08-31T02:45:18.581Z,18.32
2022-08-31T02:47:45.516Z,18.37
2022-08-31T02:50:13.031Z,18.33
2022-08-31T02:52:39.964Z,18.32
2022-08-31T02:55:07.464Z,18.16
2022-08-31T02:57:34.249Z,18.22
2022-08-31T03:00:01.025Z,18.27
2022-08-31T03:02:32.031Z,18.26
2022-08-31T03:05:02.493Z,18.30
2022-08-31T03:07:29.301Z,18.33
2022-08-31T03:09:56.141Z,18.39
2022-08-31T03:12:22.911Z,18.36
2022-08-31T03:14:49.697Z,18.39
2022-08-31T03:17:16.425Z,18.49
2022-08-31T03:19:43.261Z,18.36
2022-08-31T03:22:10.614Z,18.38
2022-08-31T03:24:37.681Z,18.26
2022-08-31T03:27:04.917Z,18.32
2022-08-31T03:29:31.946Z,18.44
2022-08-31T03:31:58.710Z,18.28
2022-08-31T03:34:25.505Z,18.12
2022-08-31T03:36:52.247Z,18.19
2022-08-31T03:39:19.099Z,18.17
2022-08-31T03:41:45.976Z,18.01
2022-08-31T03:44:13.034Z,18.13
2022-08-31T03:46:41.385Z,18.20
2022-08-31T03:49:08.166Z,18.17
2022-08-31T03:51:34.930Z,18.11
2022-08-31T03:54:01.717Z,18.14
2022-08-31T03:56:28.485Z,18.20
2022-08-31T03:58:55.258Z,18.20
2022-08-31T04:01:22.080Z,18.19
2022-08-31T04:03:48.884Z,18.09
2022-08-31T04:06:15.750Z,18.16
2022-08-31T04:08:42.710Z,18.16
2022-08-31T04:11:17.050Z,18.16
2022-08-31T04:13:46.732Z,18.25
2022-08-31T04:16:17.828Z,18.21
2022-08-31T04:18:47.170Z,18.12
2022-08-31T04:21:18.201Z,18.03
2022-08-31T04:23:44.949Z,17.94
2022-08-31T04:26:27.268Z,17.87
2022-08-31T04:28:54.830Z,17.85
2022-08-31T04:31:24.061Z,17.89
2022-08-31T04:33:51.475Z,17.86
2022-08-31T04:36:24.008Z,17.93
2022-08-31T04:38:53.893Z,17.80
2022-08-31T04:41:23.437Z,17.70
2022-08-31T04:43:53.443Z,17.70
2022-08-31T04:46:21.727Z,17.54
2022-08-31T04:48:49.576Z,17.53
2022-08-31T04:51:24.165Z,17.50
2022-08-31T04:53:52.975Z,17.61
2022-08-31T04:56:28.045Z,17.47
2022-08-31T04:59:08.700Z,17.41
2022-08-31T05:01:43.420Z,17.29
2022-08-31T05:04:13.783Z,17.27
2022-08-31T05:06:43.315Z,16.98
2022-08-31T05:09:16.113Z,17.17
2022-08-31T05:11:43.608Z,17.12
2022-08-31T05:14:10.946Z,17.06
2022-08-31T05:16:40.083Z,17.05
2022-08-31T05:19:07.390Z,17.11
2022-08-31T05:21:38.049Z,16.99
2022-08-31T05:24:11.804Z,17.08
2022-08-31T05:26:44.531Z,17.23
2022-08-31T05:29:16.056Z,17.26
2022-08-31T05:31:46.239Z,17.20
2022-08-31T05:34:17.766Z,17.26
2022-08-31T05:36:50.807Z,17.28
2022-08-31T05:39:17.488Z,17.22
2022-08-31T05:41:46.936Z,17.28
2022-08-31T05:44:15.515Z,17.28
2022-08-31T05:46:43.292Z,17.17
2022-08-31T05:49:11.850Z,17.05
2022-08-31T05:51:39.311Z,17.14
2022-08-31T05:54:07.674Z,17.03
2022-08-31T05:56:35.783Z,17.17
2022-08-31T05:59:03.508Z,17.04
2022-08-31T06:01:34.058Z,17.11
2022-08-31T06:04:02.741Z,17.18
2022-08-31T06:06:30.342Z,17.11
2022-08-31T06:08:58.546Z,17.00
2022-08-31T06:11:29.080Z,17.01
2022-08-31T06:13:59.133Z,16.97
2022-08-31T06:16:27.159Z,16.97
2022-08-31T06:18:55.762Z,16.97
2022-08-31T06:21:33.566Z,17.05
2022-08-31T06:24:03.353Z,17.10
2022-08-31T06:26:33.649Z,16.96
2022-08-31T06:29:05.637Z,16.84
2022-08-31T06:31:38.117Z,16.95
2022-08-31T06:34:07.298Z,16.93
2022-08-31T06:36:35.274Z,16.85
2022-08-31T06:39:03.134Z,16.92
2022-08-31T06:41:36.759Z,16.83
2022-08-31T06:44:08.370Z,16.85
2022-08-31T06:46:37.820Z,16.82
2022-08-31T06:49:09.006Z,16.75
2022-08-31T06:51:38.275Z,16.84
2022-08-31T06:54:28.580Z,16.82
2022-08-31T06:57:02.915Z,16.92
2022-08-31T06:59:30.203Z,16.98
2022-08-31T07:02:01.742Z,17.02
2022-08-31T07:04:33.976Z,17.05
2022-08-31T07:07:01.021Z,16.98
2022-08-31T07:09:29.058Z,17.14
2022-08-31T07:11:55.995Z,17.02
2022-08-31T07:14:26.002Z,17.05
2022-08-31T07:16:56.646Z,17.17
2022-08-31T07:19:27.437Z,17.09
2022-08-31T07:21:58.162Z,17.23
2022-08-31T07:24:30.567Z,17.17
2022-08-31T07:27:05.720Z,17.15
2022-08-31T07:29:40.436Z,17.22
2022-08-31T07:32:14.334Z,17.26
2022-08-31T07:34:44.153Z,17.24
2022-08-31T07:37:29.969Z,17.33
2022-08-31T07:40:15.263Z,17.37
2022-08-31T07:42:45.021Z,17.52
2022-08-31T07:45:23.030Z,17.36
2022-08-31T07:47:52.589Z,17.53
2022-08-31T07:50:21.583Z,17.54
2022-08-31T07:52:54.486Z,17.52
2022-08-31T07:55:23.651Z,17.54
2022-08-31T07:57:53.488Z,17.41
2022-08-31T08:00:26.581Z,17.33
2022-08-31T08:02:54.145Z,17.30
2022-08-31T08:05:29.289Z,17.38
2022-08-31T08:08:09.342Z,17.42
2022-08-31T08:10:44.023Z,17.46
2022-08-31T08:13:13.764Z,17.40
2022-08-31T08:15:40.725Z,17.32
2022-08-31T08:18:10.914Z,17.27
2022-08-31T08:20:39.283Z,17.40
2022-08-31T08:23:14.377Z,17.42
2022-08-31T08:25:46.392Z,17.56
2022-08-31T08:31:06.345Z,17.61
2022-08-31T08:33:35.473Z,17.57
2022-08-31T08:36:07.908Z,17.68
2022-08-31T08:38:39.559Z,17.60
2022-08-31T08:41:24.079Z,17.62
2022-08-31T08:43:59.041Z,17.60
2022-08-31T08:46:40.496Z,17.79
2022-08-31T08:49:49.843Z,17.86
2022-08-31T08:52:28.789Z,17.87
2022-08-31T08:55:01.521Z,17.88
2022-08-31T08:57:32.114Z,17.75
2022-08-31T09:00:10.208Z,17.94
2022-08-31T09:02:45.630Z,17.68
2022-08-31T09:05:36.572Z,17.87
2022-08-31T09:09:08.608Z,17.89
2022-08-31T09:12:39.700Z,17.92
2022-08-31T09:15:57.460Z,17.95
2022-08-31T09:18:33.065Z,17.90
2022-08-31T09:21:22.375Z,17.97
2022-08-31T09:24:01.676Z,18.08
2022-08-31T09:26:35.730Z,18.06
2022-08-31T09:29:14.031Z,18.11
2022-08-31T09:31:43.729Z,18.23
2022-08-31T09:34:31.373Z,18.19
2022-08-31T09:37:23.994Z,18.25
2022-08-31T09:39:53.797Z,18.19
2022-08-31T09:42:34.083Z,18.24
2022-08-31T09:45:16.026Z,18.36
2022-08-31T09:47:52.140Z,18.24
2022-08-31T09:50:32.991Z,18.26
2022-08-31T09:53:45.695Z,18.25
2022-08-31T09:56:22.425Z,18.30
2022-08-31T09:58:49.168Z,18.45
2022-08-31T10:01:42.087Z,18.41
2022-08-31T10:04:12.329Z,18.42
2022-08-31T10:06:55.926Z,18.41
2022-08-31T10:09:39.378Z,18.49
2022-08-31T10:12:38.764Z,18.56
2022-08-31T10:15:36.090Z,18.66
2022-08-31T10:18:14.007Z,18.68
2022-08-31T10:20:51.822Z,18.67
2022-08-31T10:23:54.499Z,18.77
2022-08-31T10:26:46.652Z,18.78
2022-08-31T10:30:06.957Z,18.99
2022-08-31T10:32:44.097Z,18.90
2022-08-31T10:35:28.759Z,19.17
2022-08-31T10:38:14.781Z,19.15
2022-08-31T10:40:52.129Z,19.26
2022-08-31T10:43:23.992Z,19.51
2022-08-31T10:45:53.335Z,19.56
2022-08-31T10:48:24.778Z,19.67
2022-08-31T10:51:19.513Z,19.79
2022-08-31T10:54:06.846Z,19.62
2022-08-31T10:56:59.270Z,20.14
2022-08-31T11:00:03.678Z,20.11
2022-08-31T11:03:26.216Z,19.98
2022-08-31T11:06:11.084Z,20.03
2022-08-31T11:08:59.179Z,20.26
2022-08-31T11:11:43.774Z,20.30
2022-08-31T11:14:45.457Z,20.14
2022-08-31T11:17:35.026Z,20.09
2022-08-31T11:20:43.053Z,20.01
2022-08-31T11:23:28.154Z,20.12
2022-08-31T11:26:32.933Z,20.27
2022-08-31T11:29:10.145Z,20.38
2022-08-31T11:31:39.030Z,20.46
2022-08-31T11:34:17.349Z,20.50
2022-08-31T11:36:52.153Z,20.52
2022-08-31T11:39:33.871Z,20.61
2022-08-31T11:42:34.378Z,20.70
2022-08-31T11:45:37.687Z,20.80
2022-08-31T11:48:07.058Z,20.53
2022-08-31T11:50:36.879Z,20.67
2022-08-31T11:53:44.523Z,20.80
2022-08-31T11:56:14.606Z,20.89
2022-08-31T11:58:42.480Z,20.84
2022-08-31T12:01:12.044Z,21.02
2022-08-31T12:04:03.666Z,21.15
2022-08-31T12:06:35.577Z,21.22
2022-08-31T12:09:02.348Z,21.30
2022-08-31T12:11:57.292Z,21.41
2022-08-31T12:14:50.218Z,21.59
2022-08-31T12:17:22.790Z,21.72
2022-08-31T12:20:01.386Z,21.80
2022-08-31T12:23:30.673Z,21.82
2022-08-31T12:26:16.553Z,21.60
2022-08-31T12:29:24.270Z,21.56
2022-08-31T12:32:41.923Z,21.61
2022-08-31T12:35:21.723Z,21.62
2022-08-31T12:38:08.729Z,21.54
2022-08-31T12:40:57.498Z,21.38
2022-08-31T12:43:47.038Z,21.20
2022-08-31T12:46:59.268Z,21.38
2022-08-31T12:50:05.163Z,21.24
2022-08-31T12:52:55.309Z,21.48
2022-08-31T12:55:55.021Z,21.26
2022-08-31T12:59:05.652Z,21.63
2022-08-31T13:01:32.762Z,21.73
2022-08-31T13:04:02.350Z,21.95
2022-08-31T13:06:37.164Z,22.37
2022-08-31T13:09:06.530Z,22.51
2022-08-31T13:11:41.795Z,22.98
2022-08-31T13:14:24.707Z,23.42
2022-08-31T13:16:58.595Z,23.81
2022-08-31T13:19:30.585Z,24.13
2022-08-31T13:22:07.938Z,24.37
2022-08-31T13:24:47.949Z,24.51
2022-08-31T13:27:20.933Z,24.83
2022-08-31T13:29:50.702Z,25.00
2022-08-31T13:32:31.737Z,25.11
2022-08-31T13:35:02.990Z,25.41
2022-08-31T13:37:37.394Z,25.44
2022-08-31T13:40:10.359Z,25.37
2022-08-31T13:42:42.710Z,25.25
2022-08-31T13:45:36.273Z,25.43
2022-08-31T13:48:20.117Z,25.10
2022-08-31T13:50:56.353Z,25.17
2022-08-31T13:54:04.820Z,25.57
2022-08-31T13:56:50.296Z,25.47
2022-08-31T13:59:26.814Z,25.27
2022-08-31T14:02:19.615Z,25.23
2022-08-31T14:05:01.484Z,24.86
2022-08-31T14:07:54.999Z,24.77
2022-08-31T14:10:37.875Z,24.72
2022-08-31T14:13:19.259Z,24.81
2022-08-31T14:15:56.652Z,24.94
2022-08-31T14:18:45.344Z,25.00
2022-08-31T14:21:21.904Z,25.09
2022-08-31T14:24:03.604Z,25.41
2022-08-31T14:26:38.004Z,25.45
2022-08-31T14:29:10.931Z,25.33
2022-08-31T14:31:56.373Z,25.49
2022-08-31T14:34:34.000Z,25.48
2022-08-31T14:37:11.504Z,25.47
2022-08-31T14:39:47.669Z,25.25
2022-08-31T14:42:24.771Z,24.94
2022-08-31T14:45:05.733Z,24.75
2022-08-31T14:47:42.735Z,24.49
2022-08-31T14:50:22.210Z,24.09
2022-08-31T14:52:53.816Z,24.17
2022-08-31T14:55:24.495Z,24.07
2022-08-31T14:58:01.604Z,24.86
2022-08-31T15:00:31.908Z,25.91
2022-08-31T15:03:03.081Z,26.84
2022-08-31T15:05:30.026Z,27.64
2022-08-31T15:07:57.282Z,27.56
2022-08-31T15:10:26.267Z,26.78
2022-08-31T15:12:53.904Z,26.12
2022-08-31T15:15:21.662Z,25.17
2022-08-31T15:17:51.513Z,24.91
2022-08-31T15:20:21.151Z,24.57
2022-08-31T15:22:48.784Z,24.48
2022-08-31T15:25:17.160Z,24.29
2022-08-31T15:27:44.837Z,24.04
2022-08-31T15:30:16.029Z,23.83
2022-08-31T15:32:45.206Z,23.63
2022-08-31T15:35:19.059Z,23.49
2022-08-31T15:37:56.677Z,23.52
2022-08-31T15:40:25.315Z,23.11
2022-08-31T15:42:56.165Z,23.32
2022-08-31T15:45:25.447Z,23.15
2022-08-31T15:48:11.103Z,23.06
2022-08-31T15:50:38.269Z,23.14
2022-08-31T15:53:10.034Z,23.14
2022-08-31T15:55:41.060Z,23.26
2022-08-31T15:58:09.890Z,23.22
2022-08-31T16:00:37.795Z,23.23
2022-08-31T16:03:06.290Z,23.48
2022-08-31T16:05:35.992Z,23.51
2022-08-31T16:08:03.793Z,23.25
2022-08-31T16:10:31.271Z,23.11
2022-08-31T16:12:58.585Z,23.59
2022-08-31T16:15:28.124Z,23.26
2022-08-31T16:17:57.762Z,23.18
2022-08-31T16:20:27.544Z,23.04
2022-08-31T16:22:54.833Z,23.12
2022-08-31T16:25:21.708Z,23.00
2022-08-31T16:27:48.592Z,22.90
2022-08-31T16:30:16.059Z,22.96
2022-08-31T16:32:42.927Z,22.26
2022-08-31T16:35:10.637Z,21.88
2022-08-31T16:37:37.853Z,21.66
2022-08-31T16:40:05.995Z,21.65
2022-08-31T16:42:32.985Z,21.25
2022-08-31T16:45:02.451Z,21.12
2022-08-31T16:47:29.886Z,20.81
2022-08-31T16:50:00.900Z,21.03
2022-08-31T16:52:27.748Z,20.66
2022-08-31T16:54:59.045Z,20.85
2022-08-31T16:57:28.992Z,20.95
2022-08-31T16:59:57.680Z,20.73
2022-08-31T17:02:28.228Z,20.52
2022-08-31T17:05:00.660Z,20.46
2022-08-31T17:07:29.319Z,20.60
2022-08-31T17:10:07.154Z,20.51
2022-08-31T17:12:34.774Z,20.55
2022-08-31T17:15:04.286Z,20.53
2022-08-31T17:17:33.026Z,20.59
2022-08-31T17:20:00.830Z,20.51
2022-08-31T17:22:32.973Z,20.37
2022-08-31T17:25:04.842Z,20.51
2022-08-31T17:27:34.410Z,20.16
2022-08-31T17:30:05.537Z,20.11
2022-08-31T17:32:32.706Z,20.31
2022-08-31T17:34:59.903Z,20.01
2022-08-31T17:37:36.392Z,19.96
2022-08-31T17:40:08.271Z,20.12
2022-08-31T17:42:35.929Z,19.96
2022-08-31T17:45:05.068Z,19.98
2022-08-31T17:47:33.286Z,19.82
2022-08-31T17:50:00.414Z,19.88
2022-08-31T17:52:27.519Z,19.93
2022-08-31T17:54:55.425Z,19.98
2022-08-31T17:57:25.341Z,19.96
2022-08-31T17:59:54.938Z,19.61
2022-08-31T18:02:32.746Z,19.61
2022-08-31T18:05:01.105Z,19.51
2022-08-31T18:07:28.783Z,19.35
2022-08-31T18:09:56.097Z,19.43
2022-08-31T18:12:25.708Z,19.13
2022-08-31T18:14:54.017Z,19.33
2022-08-31T18:17:24.272Z,19.24
2022-08-31T18:19:51.152Z,19.01
2022-08-31T18:22:19.923Z,18.94
2022-08-31T18:24:46.958Z,18.94
2022-08-31T18:27:15.562Z,18.62
2022-08-31T18:29:44.821Z,18.57
2022-08-31T18:32:11.943Z,18.28
2022-08-31T18:34:47.447Z,18.29
2022-08-31T18:37:22.233Z,18.33
2022-08-31T18:40:08.851Z,18.39
2022-08-31T18:42:56.835Z,18.31
2022-08-31T18:45:25.618Z,18.09
2022-08-31T18:50:47.546Z,18.19
2022-08-31T18:53:29.015Z,18.23
2022-08-31T18:56:09.502Z,18.14
2022-08-31T18:58:38.002Z,18.04
2022-08-31T19:01:10.468Z,18.08
2022-08-31T19:03:41.111Z,18.06
2022-08-31T19:06:09.273Z,17.96
2022-08-31T19:08:36.122Z,17.82
2022-08-31T19:11:07.663Z,17.84
2022-08-31T19:13:34.628Z,17.78
2022-08-31T19:16:10.754Z,17.69
2022-08-31T19:18:44.175Z,17.53
2022-08-31T19:21:27.385Z,17.42
2022-08-31T19:23:55.802Z,17.35
2022-08-31T19:26:37.869Z,17.42
2022-08-31T19:29:09.544Z,17.30
2022-08-31T19:31:40.922Z,17.30
2022-08-31T19:34:08.923Z,17.24
2022-08-31T19:36:40.452Z,17.14
2022-08-31T19:39:13.337Z,16.96
2022-08-31T19:41:49.376Z,17.08
2022-08-31T19:44:17.583Z,17.02
2022-08-31T19:46:52.451Z,16.95
2022-08-31T19:49:19.699Z,16.82
2022-08-31T19:51:51.863Z,16.74
2022-08-31T19:54:21.131Z,16.60
2022-08-31T19:56:47.988Z,16.53
2022-08-31T19:59:20.106Z,16.67
2022-08-31T20:01:52.222Z,16.65
2022-08-31T20:04:22.097Z,16.32
2022-08-31T20:06:52.204Z,16.27
2022-08-31T20:09:22.456Z,16.37
2022-08-31T20:11:50.817Z,16.38
2022-08-31T20:14:19.914Z,16.38
2022-08-31T20:16:47.765Z,16.35
2022-08-31T20:19:24.624Z,16.29
2022-08-31T20:21:55.917Z,16.17
2022-08-31T20:24:25.571Z,15.99
2022-08-31T20:26:57.351Z,15.84
2022-08-31T20:29:25.134Z,15.73
2022-08-31T20:31:55.321Z,15.80
2022-08-31T20:34:28.114Z,15.64
2022-08-31T20:37:00.920Z,15.75
2022-08-31T20:39:30.794Z,15.85
2022-08-31T20:41:59.187Z,15.63
2022-08-31T20:44:31.172Z,15.68
2022-08-31T20:47:21.092Z,15.65
2022-08-31T20:50:00.401Z,15.59
2022-08-31T20:52:31.617Z,15.67
2022-08-31T20:55:01.669Z,15.58
2022-08-31T20:57:30.252Z,15.67
2022-08-31T20:59:57.197Z,15.60
2022-08-31T21:02:24.465Z,15.61
2022-08-31T21:04:51.438Z,15.61
2022-08-31T21:07:23.316Z,15.49
2022-08-31T21:09:50.523Z,15.47
2022-08-31T21:12:18.583Z,15.50
2022-08-31T21:14:46.663Z,15.37
2022-08-31T21:17:14.523Z,15.43
2022-08-31T21:19:42.210Z,15.46
2022-08-31T21:22:13.952Z,15.42
2022-08-31T21:24:42.061Z,15.34
2022-08-31T21:27:14.392Z,15.45
2022-08-31T21:29:41.559Z,15.38
2022-08-31T21:32:10.705Z,15.44
2022-08-31T21:34:38.334Z,15.21
2022-08-31T21:37:08.412Z,15.17
2022-08-31T21:39:35.258Z,15.01
2022-08-31T21:42:02.606Z,14.94
2022-08-31T21:44:29.766Z,15.13
2022-08-31T21:46:56.681Z,15.13
2022-08-31T21:49:23.665Z,15.14
2022-08-31T21:51:57.852Z,15.24
2022-08-31T21:54:28.312Z,15.26
2022-08-31T21:57:00.782Z,15.20
2022-08-31T21:59:35.015Z,15.18
2022-08-31T22:02:11.247Z,15.05
2022-08-31T22:04:42.085Z,14.84
2022-08-31T22:07:09.637Z,14.78
2022-08-31T22:09:37.393Z,14.87
2022-08-31T22:12:06.618Z,14.91
2022-08-31T22:14:38.365Z,14.65
2022-08-31T22:17:07.060Z,14.77
2022-08-31T22:19:37.781Z,14.55
2022-08-31T22:22:11.852Z,14.49
2022-08-31T22:24:40.280Z,14.41
2022-08-31T22:27:10.838Z,14.50
2022-08-31T22:29:40.059Z,14.55
2022-08-31T22:32:12.821Z,14.59
2022-08-31T22:34:46.213Z,14.56
2022-08-31T22:37:14.337Z,14.62
2022-08-31T22:39:47.039Z,14.55
2022-08-31T22:42:15.245Z,14.51
2022-08-31T22:44:44.086Z,14.39
2022-08-31T22:47:10.890Z,14.32
2022-08-31T22:49:38.050Z,14.47
2022-08-31T22:52:05.086Z,14.48
2022-08-31T22:54:32.303Z,14.50
2022-08-31T22:56:59.178Z,14.41
2022-08-31T22:59:27.776Z,14.08
2022-08-31T23:02:00.592Z,13.99
2022-08-31T23:04:28.739Z,13.96
2022-08-31T23:06:57.590Z,13.93
2022-08-31T23:09:31.052Z,14.07
2022-08-31T23:12:01.294Z,13.75
2022-08-31T23:14:29.611Z,13.67
2022-08-31T23:17:00.915Z,13.84
2022-08-31T23:19:42.387Z,13.68
2022-08-31T23:22:15.148Z,13.92
2022-08-31T23:24:47.090Z,13.81
2022-08-31T23:27:17.802Z,13.92
2022-08-31T23:29:49.855Z,13.93
2022-08-31T23:32:20.075Z,13.94
2022-08-31T23:34:50.698Z,13.93
2022-08-31T23:37:23.164Z,13.98
2022-08-31T23:39:54.566Z,13.87
2022-08-31T23:42:23.788Z,13.84
2022-08-31T23:44:51.154Z,13.65
2022-08-31T23:47:22.925Z,13.75
2022-08-31T23:49:51.480Z,13.76
2022-08-31T23:52:22.271Z,13.80
2022-08-31T23:54:54.059Z,13.71
2022-08-31T23:57:32.501Z,13.72
